Time,TemperatureF,DewpointF,PressureIn,WindDirection,WindDirectionDegrees,WindSpeedMPH,WindSpeedGustMPH,Humidity,HourlyPrecipIn,Conditions,Clouds,dailyrainin,SolarRadiationWatts/m^2,SoftwareType,DateUTC
2013-02-04 00:02:00,11.0,4.0,-100.00,SSE,160,2.0,3.0,72,0.00,,,0.00,0.000000,,2013-02-04 06:02:00,
2013-02-04 00:32:00,11.0,6.0,-100.00,ENE,61,2.0,3.0,78,0.00,,,0.00,0.000000,,2013-02-04 06:32:00,
2013-02-04 00:42:00,11.0,6.0,-100.00,ENE,61,2.0,3.0,78,0.00,,,0.00,0.000000,,2013-02-04 06:42:00,
2013-02-04 00:52:00,11.0,6.0,-100.00,ENE,61,2.0,3.0,78,0.00,,,0.00,0.000000,,2013-02-04 06:52:00,
2013-02-04 01:02:00,11.0,6.0,-100.00,ENE,61,2.0,3.0,78,0.00,,,0.00,0.000000,,2013-02-04 07:02:00,
2013-02-04 01:32:00,10.0,6.0,-100.00,NE,47,2.0,5.0,82,0.00,,,0.00,0.000000,,2013-02-04 07:32:00,
2013-02-04 01:42:00,10.0,6.0,-100.00,NE,47,2.0,5.0,82,0.00,,,0.00,0.000000,,2013-02-04 07:42:00,
2013-02-04 01:52:00,10.0,6.0,-100.00,NE,47,2.0,5.0,82,0.00,,,0.00,0.000000,,2013-02-04 07:52:00,
2013-02-04 02:01:00,10.0,6.0,-100.00,NE,47,2.0,5.0,82,0.00,,,0.00,0.000000,,2013-02-04 08:01:00,
2013-02-04 02:32:00,10.0,6.0,-100.00,NE,41,2.0,5.0,83,0.01,,,0.01,0.000000,,2013-02-04 08:32:00,
2013-02-04 02:42:00,10.0,6.0,-100.00,NE,41,2.0,5.0,83,0.01,,,0.01,0.000000,,2013-02-04 08:42:00,
2013-02-04 02:52:00,10.0,6.0,-100.00,NE,41,2.0,5.0,83,0.01,,,0.01,0.000000,,2013-02-04 08:52:00,
2013-02-04 03:02:00,10.0,6.0,-100.00,NE,41,2.0,5.0,83,0.01,,,0.01,0.000000,,2013-02-04 09:02:00,
2013-02-04 03:32:00,9.0,5.0,-100.00,NE,47,1.0,4.0,83,0.00,,,0.01,0.000000,,2013-02-04 09:32:00,
2013-02-04 03:42:00,9.0,5.0,-100.00,NE,47,1.0,4.0,83,0.00,,,0.01,0.000000,,2013-02-04 09:42:00,
2013-02-04 03:52:00,9.0,5.0,-100.00,NE,47,1.0,4.0,83,0.00,,,0.01,0.000000,,2013-02-04 09:52:00,
2013-02-04 04:01:00,9.0,5.0,-100.00,NE,47,1.0,4.0,83,0.00,,,0.01,0.000000,,2013-02-04 10:01:00,
2013-02-04 04:32:00,9.0,5.0,-100.00,North,7,4.0,6.0,83,0.00,,,0.01,0.000000,,2013-02-04 10:32:00,
2013-02-04 04:42:00,9.0,5.0,-100.00,North,7,4.0,6.0,83,0.00,,,0.01,0.000000,,2013-02-04 10:42:00,
2013-02-04 04:52:00,9.0,5.0,-100.00,North,7,4.0,6.0,83,0.00,,,0.01,0.000000,,2013-02-04 10:52:00,
2013-02-04 05:02:00,9.0,5.0,-100.00,North,7,4.0,6.0,83,0.00,,,0.01,0.000000,,2013-02-04 11:02:00,
2013-02-04 05:33:00,4.0,-1.0,-100.00,WNW,283,1.0,5.0,80,0.00,,,0.01,0.000000,,2013-02-04 11:33:00,
2013-02-04 05:42:00,4.0,-1.0,-100.00,WNW,283,1.0,5.0,80,0.00,,,0.01,0.000000,,2013-02-04 11:42:00,
2013-02-04 05:52:00,4.0,-1.0,-100.00,WNW,283,1.0,5.0,80,0.00,,,0.01,0.000000,,2013-02-04 11:52:00,
2013-02-04 06:02:00,4.0,-1.0,-100.00,WNW,283,1.0,5.0,80,0.00,,,0.01,0.000000,,2013-02-04 12:02:00,
2013-02-04 06:33:00,0.0,-4.0,-100.00,North,352,3.0,4.0,82,0.00,,,0.01,0.000000,,2013-02-04 12:33:00,
2013-02-04 07:33:00,2.0,-2.0,-100.00,North,352,2.0,4.0,83,0.00,,,0.01,0.000000,,2013-02-04 13:33:00,
2013-02-04 07:42:00,2.0,-2.0,-100.00,North,352,2.0,4.0,83,0.00,,,0.01,0.000000,,2013-02-04 13:42:00,
2013-02-04 07:52:00,2.0,-2.0,-100.00,North,352,2.0,4.0,83,0.00,,,0.01,0.000000,,2013-02-04 13:52:00,
2013-02-04 08:03:00,2.0,-2.0,-100.00,North,352,2.0,4.0,83,0.00,,,0.01,0.000000,,2013-02-04 14:03:00,
2013-02-04 08:33:00,2.0,-3.0,-100.00,NNE,19,1.0,4.0,78,0.00,,,0.01,12.000000,,2013-02-04 14:33:00,
2013-02-04 08:42:00,2.0,-3.0,-100.00,NNE,19,1.0,4.0,78,0.00,,,0.01,12.000000,,2013-02-04 14:42:00,
2013-02-04 08:52:00,2.0,-3.0,-100.00,NNE,19,1.0,4.0,78,0.00,,,0.01,12.000000,,2013-02-04 14:52:00,
2013-02-04 09:03:00,2.0,-3.0,-100.00,NNE,19,1.0,4.0,78,0.00,,,0.01,12.000000,,2013-02-04 15:03:00,
2013-02-04 09:33:00,9.0,-1.0,-100.00,North,358,3.0,5.0,63,0.00,,,-99.99,113.000000,,2013-02-04 15:33:00,
2013-02-04 09:43:00,9.0,-1.0,-100.00,North,358,3.0,5.0,63,0.00,,,-99.99,113.000000,,2013-02-04 15:43:00,
2013-02-04 09:53:00,9.0,-1.0,-100.00,North,358,3.0,5.0,63,0.00,,,-99.99,113.000000,,2013-02-04 15:53:00,
2013-02-04 10:03:00,9.0,-1.0,-100.00,North,358,3.0,5.0,63,0.00,,,-99.99,113.000000,,2013-02-04 16:03:00,
2013-02-04 12:33:00,17.0,-2.0,-100.00,West,281,5.0,9.0,43,-99.99,,,0.01,344.000000,,2013-02-04 18:33:00,
2013-02-04 12:42:00,17.0,-2.0,-100.00,West,281,5.0,9.0,43,-99.99,,,0.01,344.000000,,2013-02-04 18:42:00,
2013-02-04 12:52:00,17.0,-2.0,-100.00,West,281,5.0,9.0,43,-99.99,,,0.01,344.000000,,2013-02-04 18:52:00,
2013-02-04 13:02:00,17.0,-2.0,-100.00,West,281,5.0,9.0,43,-99.99,,,0.01,344.000000,,2013-02-04 19:02:00,
2013-02-04 13:32:00,19.0,-1.0,-100.00,WNW,300,5.0,9.0,40,0.00,,,0.01,393.000000,,2013-02-04 19:32:00,
2013-02-04 13:42:00,19.0,-1.0,-100.00,WNW,300,5.0,9.0,40,0.00,,,0.01,393.000000,,2013-02-04 19:42:00,
2013-02-04 13:52:00,19.0,-1.0,-100.00,WNW,300,5.0,9.0,40,0.00,,,0.01,393.000000,,2013-02-04 19:52:00,
2013-02-04 14:02:00,19.0,-1.0,-100.00,WNW,300,5.0,9.0,40,0.00,,,0.01,393.000000,,2013-02-04 20:02:00,
2013-02-04 15:32:00,16.0,-3.0,-100.00,WSW,237,6.0,10.0,41,-99.99,,,0.01,356.000000,,2013-02-04 21:32:00,
2013-02-04 15:43:00,16.0,-3.0,-100.00,WSW,237,6.0,10.0,41,-99.99,,,0.01,356.000000,,2013-02-04 21:43:00,
2013-02-04 15:52:00,16.0,-3.0,-100.00,WSW,237,6.0,10.0,41,-99.99,,,0.01,356.000000,,2013-02-04 21:52:00,
2013-02-04 16:02:00,16.0,-3.0,-100.00,WSW,237,6.0,10.0,41,-99.99,,,0.01,356.000000,,2013-02-04 22:02:00,
2013-02-04 16:33:00,15.0,-3.0,-100.00,SW,235,4.0,10.0,44,0.00,,,0.01,157.000000,,2013-02-04 22:33:00,
2013-02-04 16:42:00,15.0,-3.0,-100.00,SW,235,4.0,10.0,44,0.00,,,0.01,157.000000,,2013-02-04 22:42:00,
2013-02-04 16:52:00,15.0,-3.0,-100.00,SW,235,4.0,10.0,44,0.00,,,0.01,157.000000,,2013-02-04 22:52:00,
2013-02-04 17:01:00,15.0,-3.0,-100.00,SW,235,4.0,10.0,44,0.00,,,0.01,157.000000,,2013-02-04 23:01:00,
2013-02-04 17:32:00,13.0,-6.0,-100.00,SSW,210,2.0,5.0,41,0.00,,,0.01,56.000000,,2013-02-04 23:32:00,
2013-02-04 17:42:00,13.0,-6.0,-100.00,SSW,210,2.0,5.0,41,0.00,,,0.01,56.000000,,2013-02-04 23:42:00,
2013-02-04 17:52:00,13.0,-6.0,-100.00,SSW,210,2.0,5.0,41,0.00,,,0.01,56.000000,,2013-02-04 23:52:00,
2013-02-04 18:01:00,13.0,-6.0,-100.00,SSW,210,2.0,5.0,41,0.00,,,0.01,56.000000,,2013-02-05 00:01:00,
2013-02-04 18:32:00,7.0,-5.0,-100.00,NNE,25,1.0,3.0,58,0.00,,,0.01,2.000000,,2013-02-05 00:32:00,
2013-02-04 18:42:00,7.0,-5.0,-100.00,NNE,25,1.0,3.0,58,0.00,,,0.01,2.000000,,2013-02-05 00:42:00,
2013-02-04 18:52:00,7.0,-5.0,-100.00,NNE,25,1.0,3.0,58,0.00,,,0.01,2.000000,,2013-02-05 00:52:00,
2013-02-04 19:02:00,7.0,-5.0,-100.00,NNE,25,1.0,3.0,58,0.00,,,0.01,2.000000,,2013-02-05 01:02:00,
2013-02-04 19:33:00,7.0,-2.0,-100.00,SSE,154,1.0,2.0,65,0.00,,,0.01,0.000000,,2013-02-05 01:33:00,
2013-02-04 19:42:00,7.0,-2.0,-100.00,SSE,154,1.0,2.0,65,0.00,,,0.01,0.000000,,2013-02-05 01:42:00,
2013-02-04 19:52:00,7.0,-2.0,-100.00,SSE,154,1.0,2.0,65,0.00,,,0.01,0.000000,,2013-02-05 01:52:00,
2013-02-04 20:01:00,7.0,-2.0,-100.00,SSE,154,1.0,2.0,65,0.00,,,0.01,0.000000,,2013-02-05 02:01:00,
2013-02-04 20:32:00,5.0,-3.0,-100.00,SSE,162,2.0,4.0,69,0.00,,,0.01,0.000000,,2013-02-05 02:32:00,
2013-02-04 20:42:00,5.0,-3.0,-100.00,SSE,162,2.0,4.0,69,0.00,,,0.01,0.000000,,2013-02-05 02:42:00,
2013-02-04 20:52:00,5.0,-3.0,-100.00,SSE,162,2.0,4.0,69,0.00,,,0.01,0.000000,,2013-02-05 02:52:00,
2013-02-04 21:02:00,5.0,-3.0,-100.00,SSE,162,2.0,4.0,69,0.00,,,0.01,0.000000,,2013-02-05 03:02:00,
2013-02-04 21:32:00,5.0,-2.0,-100.00,South,191,2.0,4.0,73,0.00,,,0.01,0.000000,,2013-02-05 03:32:00,
2013-02-04 21:42:00,5.0,-2.0,-100.00,South,191,2.0,4.0,73,0.00,,,0.01,0.000000,,2013-02-05 03:42:00,
2013-02-04 21:52:00,5.0,-2.0,-100.00,South,191,2.0,4.0,73,0.00,,,0.01,0.000000,,2013-02-05 03:52:00,
2013-02-04 22:01:00,5.0,-2.0,-100.00,South,191,2.0,4.0,73,0.00,,,0.01,0.000000,,2013-02-05 04:01:00,
2013-02-04 22:32:00,3.0,-3.0,-100.00,SSW,197,2.0,3.0,76,0.00,,,0.01,0.000000,,2013-02-05 04:32:00,
2013-02-04 22:42:00,3.0,-3.0,-100.00,SSW,197,2.0,3.0,76,0.00,,,0.01,0.000000,,2013-02-05 04:42:00,
2013-02-04 22:52:00,3.0,-3.0,-100.00,SSW,197,2.0,3.0,76,0.00,,,0.01,0.000000,,2013-02-05 04:52:00,
2013-02-04 23:02:00,3.0,-3.0,-100.00,SSW,197,2.0,3.0,76,0.00,,,0.01,0.000000,,2013-02-05 05:02:00,
2013-02-04 23:32:00,5.0,-1.0,-100.00,South,179,4.0,5.0,74,0.00,,,0.01,0.000000,,2013-02-05 05:32:00,
2013-02-04 23:42:00,5.0,-1.0,-100.00,South,179,4.0,5.0,74,0.00,,,0.01,0.000000,,2013-02-05 05:42:00,
2013-02-04 23:52:00,5.0,-1.0,-100.00,South,179,4.0,5.0,74,0.00,,,0.01,0.000000,,2013-02-05 05:52:00,